Time;durP1;ratioP1;P1;durP2;ratioP2;P2;SDS_P1;SDS_P2;PMS_P1;PMS_P2;Temp;Humidity;BMP_temperature;BMP_pressure;BME280_temperature;BME280_humidity;BME280_pressure;Samples;Min_cycle;Max_cycle;Signal;HPM_P1;HPM_P2
2023/11/06 00:01:10;;;;;;;0.28;0.28;;;;;;;13.09;100.00;99479.81;5011176;28;20103;-77
2023/11/06 00:03:35;;;;;;;0.20;0.20;;;;;;;12.96;100.00;99483.63;5028370;28;20338;-76
2023/11/06 00:06:01;;;;;;;0.30;0.30;;;;;;;12.92;100.00;99488.09;5036182;28;20029;-76
2023/11/06 00:08:26;;;;;;;2.55;0.65;;;;;;;12.65;100.00;99485.25;5033409;28;20123;-75
2023/11/06 00:10:56;;;;;;;0.30;0.30;;;;;;;12.33;100.00;99421.97;5032537;28;20030;-77
2023/11/06 00:13:22;;;;;;;0.20;0.20;;;;;;;12.92;100.00;99519.69;5021316;28;20041;-80
2023/11/06 00:15:47;;;;;;;0.52;0.52;;;;;;;12.49;100.00;99456.69;5028058;28;20037;-75
2023/11/06 00:18:13;;;;;;;0.30;0.28;;;;;;;12.15;100.00;99417.97;5031191;28;20021;-75
2023/11/06 00:20:39;;;;;;;0.20;0.20;;;;;;;12.82;100.00;99529.59;5031513;28;20037;-77
2023/11/06 00:23:06;;;;;;;0.20;0.20;;;;;;;12.56;100.00;99519.66;5033898;28;20474;-75
2023/11/06 00:25:34;;;;;;;0.20;0.20;;;;;;;12.28;100.00;99440.50;5016203;28;20037;-76
2023/11/06 00:27:59;;;;;;;0.28;0.20;;;;;;;12.08;100.00;99435.69;5032231;28;20047;-75
2023/11/06 00:30:28;;;;;;;0.40;0.38;;;;;;;12.69;100.00;99549.22;5053289;28;20033;-76
2023/11/06 00:32:54;;;;;;;0.10;0.10;;;;;;;12.60;100.00;99567.84;5032474;28;20029;-77
2023/11/06 00:36:03;;;;;;;0.20;0.20;;;;;;;12.59;100.00;99563.47;5028505;28;20045;-79
2023/11/06 00:38:29;;;;;;;0.20;0.20;;;;;;;12.53;100.00;99550.47;5034005;28;21785;-77
2023/11/06 00:40:54;;;;;;;0.20;0.20;;;;;;;12.32;100.00;99539.50;5033083;28;20466;-76
2023/11/06 00:43:21;;;;;;;0.20;0.20;;;;;;;11.96;100.00;99475.38;5015727;28;20060;-76
2023/11/06 00:45:47;;;;;;;0.20;0.20;;;;;;;12.41;100.00;99551.59;5029781;28;20029;-75
2023/11/06 00:48:12;;;;;;;0.30;0.30;;;;;;;12.36;100.00;99545.53;5031903;28;20036;-75
2023/11/06 00:50:38;;;;;;;0.55;0.55;;;;;;;12.31;100.00;99550.88;5027921;28;20083;-76
2023/11/06 00:53:27;;;;;;;0.47;0.47;;;;;;;12.43;100.00;99576.97;5027671;28;20034;-76
2023/11/06 00:55:53;;;;;;;0.20;0.20;;;;;;;12.34;100.00;99560.47;5036334;28;20473;-77
2023/11/06 00:58:18;;;;;;;0.20;0.20;;;;;;;11.91;100.00;99493.00;5034494;28;20160;-74
2023/11/06 01:00:44;;;;;;;0.30;0.30;;;;;;;12.41;100.00;99580.53;5026112;28;20072;-76
2023/11/06 01:03:12;;;;;;;0.65;0.65;;;;;;;11.60;100.00;99462.03;5033273;28;20092;-77
2023/11/06 01:05:38;;;;;;;0.20;0.20;;;;;;;11.71;100.00;99481.09;5031892;28;20417;-79
2023/11/06 01:08:05;;;;;;;0.20;0.20;;;;;;;11.75;100.00;99508.16;5027664;28;20114;-78
2023/11/06 01:10:33;;;;;;;0.20;0.20;;;;;;;12.20;100.00;99568.69;5008085;28;20464;-75
2023/11/06 01:12:59;;;;;;;0.60;0.40;;;;;;;11.64;100.00;99471.59;5042041;28;20041;-77
2023/11/06 01:15:35;;;;;;;0.75;0.43;;;;;;;12.13;100.00;99567.06;5034019;28;20042;-76
2023/11/06 01:18:33;;;;;;;0.20;0.20;;;;;;;12.20;100.00;99597.63;5032693;28;20028;-76
2023/11/06 01:21:29;;;;;;;0.35;0.32;;;;;;;12.30;100.00;99596.53;5029478;28;20112;-77
2023/11/06 01:27:40;;;;;;;0.20;0.20;;;;;;;12.12;100.00;99617.91;5032785;28;20036;-76
2023/11/06 01:30:42;;;;;;;0.20;0.20;;;;;;;12.19;100.00;99627.44;5027596;28;20021;-76
2023/11/06 01:33:50;;;;;;;0.55;0.55;;;;;;;12.14;100.00;99635.41;5032758;28;20033;-75
2023/11/06 01:36:24;;;;;;;0.38;0.38;;;;;;;11.99;100.00;99609.41;5032655;28;20099;-78
2023/11/06 01:38:52;;;;;;;;;;;;;;;12.13;100.00;99636.31;5031539;28;20017;-76
2023/11/06 01:41:18;;;;;;;0.20;0.20;;;;;;;11.39;100.00;99532.47;5029187;28;19975;-76
2023/11/06 01:43:43;;;;;;;0.20;0.20;;;;;;;11.97;100.00;99632.25;5001682;28;20497;-78
2023/11/06 01:46:11;;;;;;;0.28;0.28;;;;;;;12.14;100.00;99655.59;5032046;28;20050;-78
2023/11/06 01:48:38;;;;;;;1.48;1.20;;;;;;;12.04;100.00;99665.41;5025291;28;20036;-77
2023/11/06 01:51:04;;;;;;;0.20;0.20;;;;;;;11.83;100.00;99669.25;5029139;28;20493;-76
2023/11/06 01:53:30;;;;;;;0.20;0.20;;;;;;;11.17;100.00;99562.63;5027048;28;20429;-77
2023/11/06 01:56:00;;;;;;;0.43;0.30;;;;;;;11.07;100.00;99567.13;5030246;28;20041;-77
2023/11/06 01:58:32;;;;;;;0.20;0.20;;;;;;;11.87;100.00;99694.63;5030862;28;20049;-77
2023/11/06 02:00:59;;;;;;;0.35;0.35;;;;;;;12.00;100.00;99704.03;5027837;28;20052;-77
2023/11/06 02:03:35;;;;;;;0.20;0.20;;;;;;;11.92;100.00;99707.69;5031989;28;20478;-76
2023/11/06 02:06:01;;;;;;;0.32;0.32;;;;;;;11.84;100.00;99687.59;5026296;28;20091;-77
2023/11/06 02:08:27;;;;;;;0.20;0.20;;;;;;;11.77;100.00;99699.13;5040483;28;20033;-75
2023/11/06 02:10:53;;;;;;;0.20;0.20;;;;;;;11.31;100.00;99625.44;5044779;28;20060;-76
2023/11/06 02:16:40;;;;;;;0.20;0.20;;;;;;;11.74;100.00;99714.09;5028276;28;20036;-76
2023/11/06 02:22:28;;;;;;;0.20;0.20;;;;;;;11.83;100.00;99742.84;5033891;28;20095;-77
2023/11/06 02:28:40;;;;;;;0.55;0.40;;;;;;;11.95;100.00;99753.19;5030422;28;20056;-76
2023/11/06 02:31:06;;;;;;;2.17;1.55;;;;;;;11.70;100.00;99751.81;5032920;28;20454;-76
2023/11/06 02:33:31;;;;;;;0.85;0.85;;;;;;;11.82;100.00;99764.75;5040293;28;20037;-76
2023/11/06 02:35:57;;;;;;;0.40;0.40;;;;;;;11.65;100.00;99757.13;5028529;28;20424;-77
2023/11/06 02:38:50;;;;;;;0.43;0.40;;;;;;;11.58;100.00;99760.75;5033450;28;20120;-78
2023/11/06 02:41:58;;;;;;;0.22;0.22;;;;;;;11.73;100.00;99775.41;5027864;28;20041;-77
2023/11/06 02:44:24;;;;;;;0.20;0.20;;;;;;;11.59;100.00;99767.75;5029266;28;20481;-78
2023/11/06 02:46:49;;;;;;;0.20;0.20;;;;;;;11.55;100.00;99761.66;5024795;28;20041;-75
2023/11/06 02:49:15;;;;;;;0.20;0.20;;;;;;;11.59;100.00;99792.25;5033350;28;20100;-76
2023/11/06 02:55:17;;;;;;;0.22;0.22;;;;;;;11.59;100.00;99808.03;5042763;28;20389;-78
2023/11/06 02:58:07;;;;;;;0.20;0.20;;;;;;;11.59;100.00;99805.41;5024673;28;20052;-76
2023/11/06 03:01:07;;;;;;;0.30;0.30;;;;;;;11.57;100.00;99816.81;5020762;28;20033;-75
2023/11/06 03:03:34;;;;;;;1.05;0.68;;;;;;;11.02;100.00;99754.50;5030482;28;20041;-75
2023/11/06 03:05:59;;;;;;;0.43;0.40;;;;;;;11.29;100.00;99795.31;5029792;28;20056;-75
2023/11/06 03:08:25;;;;;;;0.40;0.40;;;;;;;11.52;100.00;99824.78;5015299;28;20461;-76
2023/11/06 03:10:51;;;;;;;0.20;0.20;;;;;;;10.97;100.00;99742.28;5031612;28;20056;-76
2023/11/06 03:13:54;;;;;;;0.20;0.20;;;;;;;11.40;100.00;99835.41;5031473;28;20033;-76
2023/11/06 03:16:27;;;;;;;0.20;0.20;;;;;;;10.88;100.00;99745.03;5052530;28;20103;-75
2023/11/06 03:22:30;;;;;;;0.20;0.20;;;;;;;11.08;100.00;99772.81;5036953;28;20052;-77
2023/11/06 03:24:56;;;;;;;0.20;0.20;;;;;;;11.42;100.00;99859.91;4990278;28;20045;-77
2023/11/06 03:27:21;;;;;;;0.55;0.55;;;;;;;10.90;100.00;99772.13;5013126;28;20041;-76
2023/11/06 03:29:47;;;;;;;0.28;0.28;;;;;;;11.36;100.00;99841.63;5035795;28;20025;-75
2023/11/06 03:32:13;;;;;;;0.20;0.20;;;;;;;10.78;100.00;99756.53;5026337;28;20378;-76
2023/11/06 03:34:44;;;;;;;0.43;0.40;;;;;;;11.22;100.00;99846.19;5023699;28;20033;-75
2023/11/06 03:37:10;;;;;;;0.68;0.68;;;;;;;11.36;100.00;99871.38;5028181;28;20408;-75
2023/11/06 03:40:09;;;;;;;0.20;0.20;;;;;;;11.49;100.00;99892.22;5025043;28;20124;-76
2023/11/06 03:43:11;;;;;;;0.40;0.40;;;;;;;11.44;100.00;99883.53;5026336;28;20200;-76
2023/11/06 03:46:07;;;;;;;0.20;0.20;;;;;;;11.37;100.00;99886.22;5026734;28;20513;-77
2023/11/06 03:48:33;;;;;;;0.60;0.60;;;;;;;11.34;100.00;99891.53;5008788;28;20037;-77
2023/11/06 03:50:58;;;;;;;0.30;0.30;;;;;;;10.62;100.00;99800.44;5026904;28;20040;-77
2023/11/06 03:53:24;;;;;;;0.30;0.30;;;;;;;11.21;100.00;99879.41;5034163;28;20115;-77
2023/11/06 03:56:17;;;;;;;0.90;0.63;;;;;;;11.37;100.00;99917.75;5031466;28;20114;-76
2023/11/06 03:59:17;;;;;;;1.08;0.73;;;;;;;11.33;100.00;99902.94;5022312;28;20053;-77
2023/11/06 04:01:42;;;;;;;0.65;0.63;;;;;;;11.23;100.00;99903.03;5012881;28;20069;-80
2023/11/06 04:04:08;;;;;;;0.77;0.60;;;;;;;11.24;100.00;99908.28;5039892;28;20452;-77
2023/11/06 04:06:33;;;;;;;1.05;0.98;;;;;;;11.20;100.00;99888.19;5035782;28;20026;-76
2023/11/06 04:08:59;;;;;;;3.03;0.60;;;;;;;10.82;100.00;99812.50;5046259;28;20032;-76
2023/11/06 04:11:25;;;;;;;1.50;1.25;;;;;;;11.15;100.00;99911.88;5042336;28;20029;-77
2023/11/06 04:13:51;;;;;;;0.20;0.20;;;;;;;11.22;100.00;99915.31;5027776;28;20045;-78
2023/11/06 04:16:18;;;;;;;0.30;0.30;;;;;;;11.23;100.00;99916.19;5016727;28;20042;-78
2023/11/06 04:18:43;;;;;;;0.20;0.20;;;;;;;10.57;100.00;99813.59;5034239;28;20030;-79
2023/11/06 04:21:09;;;;;;;0.20;0.20;;;;;;;11.18;100.00;99927.59;5037192;28;20091;-79
2023/11/06 04:30:59;;;;;;;0.75;0.73;;;;;;;11.15;100.00;99929.41;5047926;28;20040;-77
2023/11/06 04:33:24;;;;;;;0.55;0.52;;;;;;;11.20;100.00;99927.59;5031666;28;20030;-78
2023/11/06 04:35:50;;;;;;;0.30;0.30;;;;;;;10.59;100.00;99825.84;5016533;28;20416;-77
2023/11/06 04:38:15;;;;;;;0.55;0.55;;;;;;;10.79;100.00;99865.84;5016375;28;20068;-78
2023/11/06 04:44:03;;;;;;;0.40;0.30;;;;;;;11.02;100.00;99954.03;5035782;28;20045;-79
2023/11/06 04:46:29;;;;;;;0.20;0.20;;;;;;;10.90;100.00;99918.25;5033338;28;20041;-79
2023/11/06 04:48:54;;;;;;;0.20;0.20;;;;;;;10.92;100.00;99909.47;5033325;28;20044;-76
2023/11/06 04:51:20;;;;;;;0.25;0.25;;;;;;;10.89;100.00;99958.53;5031326;28;20381;-77
2023/11/06 04:53:58;;;;;;;0.20;0.20;;;;;;;11.18;100.00;99966.97;5035428;28;20017;-78
2023/11/06 04:56:28;;;;;;;0.47;0.47;;;;;;;10.74;100.00;99883.41;5034431;28;20043;-77
2023/11/06 05:02:35;;;;;;;1.45;0.90;;;;;;;10.78;100.00;99911.38;5039658;28;20048;-77
2023/11/06 05:05:01;;;;;;;0.30;0.30;;;;;;;10.68;100.00;99870.34;5031210;28;20044;-77
2023/11/06 05:07:27;;;;;;;0.50;0.50;;;;;;;10.74;100.00;99905.25;5034225;28;20130;-79
2023/11/06 05:09:53;;;;;;;0.45;0.45;;;;;;;11.17;100.00;99973.13;5025222;28;21573;-78
2023/11/06 05:12:19;;;;;;;0.63;0.60;;;;;;;11.26;100.00;99989.69;5028615;28;20080;-78
2023/11/06 05:14:44;;;;;;;0.30;0.30;;;;;;;10.52;100.00;99867.00;5026499;28;20037;-76
2023/11/06 05:17:10;;;;;;;0.40;0.40;;;;;;;11.19;100.00;99978.34;5030275;28;20049;-75
2023/11/06 05:19:41;;;;;;;6.78;6.47;;;;;;;11.14;100.00;99999.44;5030415;28;20072;-76
2023/11/06 05:22:08;;;;;;;0.25;0.25;;;;;;;10.60;100.00;99895.78;5023494;28;20029;-76
2023/11/06 05:24:34;;;;;;;1.52;0.98;;;;;;;11.29;100.00;100015.94;5011143;28;20422;-76
2023/11/06 05:27:15;;;;;;;0.93;0.85;;;;;;;11.15;100.00;99966.16;5052043;28;20056;-78
2023/11/06 05:29:42;;;;;;;2.17;0.57;;;;;;;11.17;100.00;99957.38;5052543;28;20021;-76
2023/11/06 05:32:10;;;;;;;0.57;0.57;;;;;;;11.01;100.00;99949.66;5024615;28;20487;-76
2023/11/06 05:35:21;;;;;;;0.20;0.20;;;;;;;11.47;100.00;100007.88;5031263;28;20064;-76
2023/11/06 05:37:47;;;;;;;0.20;0.20;;;;;;;10.76;100.00;99908.75;5034890;28;20487;-76
2023/11/06 05:40:13;;;;;;;0.52;0.52;;;;;;;11.44;100.00;100002.63;5029224;28;20041;-76
2023/11/06 05:43:27;;;;;;;0.75;0.75;;;;;;;11.53;100.00;100022.69;5040241;28;20465;-76
2023/11/06 05:45:52;;;;;;;9.27;8.48;;;;;;;11.54;100.00;100025.31;5015776;28;20041;-79
2023/11/06 05:48:20;;;;;;;0.20;0.20;;;;;;;11.54;100.00;100041.09;5035416;28;20040;-79
2023/11/06 05:50:47;;;;;;;0.47;0.47;;;;;;;11.15;100.00;99964.41;5029968;28;20437;-80
2023/11/06 05:57:11;;;;;;;0.20;0.20;;;;;;;11.60;100.00;100046.25;5034518;28;20104;-76
2023/11/06 05:59:37;;;;;;;0.65;0.65;;;;;;;11.01;100.00;99966.28;5027380;28;20103;-77
2023/11/06 06:02:03;;;;;;;0.20;0.20;;;;;;;11.10;100.00;99984.59;5025120;28;20033;-76
2023/11/06 06:04:30;;;;;;;1.88;1.48;;;;;;;11.04;100.00;99975.88;5036395;28;20053;-76
2023/11/06 06:07:09;;;;;;;1.00;0.93;;;;;;;11.50;100.00;100034.09;5027998;28;20037;-78
2023/11/06 06:12:56;;;;;;;0.20;0.20;;;;;;;11.83;100.00;100088.09;5033463;28;20476;-76
2023/11/06 06:15:23;;;;;;;1.13;1.05;;;;;;;11.40;100.00;99993.94;5032288;28;20038;-77
2023/11/06 06:17:48;;;;;;;0.82;0.75;;;;;;;11.80;100.00;100082.88;5033188;28;20033;-76
2023/11/06 06:20:14;;;;;;;1.50;1.40;;;;;;;11.92;100.00;100074.00;5032502;28;20393;-77
2023/11/06 06:22:40;;;;;;;3.10;1.20;;;;;;;12.00;100.00;100093.19;5033009;28;20040;-77
2023/11/06 06:28:28;;;;;;;1.05;0.82;;;;;;;11.29;100.00;100010.69;5033041;28;20480;-76
2023/11/06 06:30:53;;;;;;;0.20;0.20;;;;;;;11.56;100.00;100044.53;5032579;28;20140;-78
2023/11/06 06:33:19;;;;;;;1.73;1.15;;;;;;;11.62;100.00;100055.00;5032749;28;20377;-77
2023/11/06 06:35:44;;;;;;;2.20;1.67;;;;;;;12.12;100.00;100104.47;5015148;28;20032;-75
2023/11/06 06:41:31;;;;;;;1.67;1.58;;;;;;;12.17;100.00;100092.97;5033257;28;20535;-78
2023/11/06 06:43:57;;;;;;;2.22;1.67;;;;;;;11.69;100.00;100008.50;5032599;28;20042;-77
2023/11/06 06:46:22;;;;;;;1.38;1.10;;;;;;;12.16;100.00;100077.25;5032571;28;20053;-77
2023/11/06 06:48:48;;;;;;;0.20;0.20;;;;;;;12.19;100.00;100050.91;5032398;28;20084;-80
2023/11/06 06:51:14;;;;;;;2.53;1.25;;;;;;;11.91;100.00;100001.25;5028835;28;20425;-76
2023/11/06 06:53:42;;;;;;;0.75;0.75;;;;;;;12.52;100.00;100101.34;5010288;28;20037;-78
2023/11/06 06:56:08;;;;;;;1.40;1.30;;;;;;;12.53;100.00;100119.75;5037044;28;20033;-75
2023/11/06 06:58:33;;;;;;;1.85;1.55;;;;;;;11.99;100.00;100027.47;5032586;28;20099;-76
2023/11/06 07:01:45;;;;;;;1.67;1.20;;;;;;;12.57;100.00;100133.72;5047091;28;20511;-76
2023/11/06 07:04:11;;;;;;;0.20;0.20;;;;;;;12.68;100.00;100123.94;5042436;28;20140;-76
2023/11/06 07:06:36;;;;;;;0.82;0.57;;;;;;;12.83;100.00;100138.66;5023074;28;20111;-78
2023/11/06 07:09:02;;;;;;;2.08;0.80;;;;;;;12.62;100.00;100088.06;5039231;28;20032;-77
2023/11/06 07:12:05;;;;;;;0.57;0.55;;;;;;;12.91;100.00;100138.56;5040302;28;20051;-76
2023/11/06 07:14:32;;;;;;;1.02;0.90;;;;;;;12.99;100.00;100141.94;5038902;28;20059;-76
2023/11/06 07:17:03;;;;;;;0.20;0.20;;;;;;;12.50;100.00;100032.94;5026744;28;20049;-75
2023/11/06 07:19:30;;;;;;;1.70;1.60;;;;;;;12.88;100.00;100092.94;5036010;28;20044;-76
2023/11/06 07:25:17;;;;;;;0.47;0.47;;;;;;;12.79;100.00;100068.53;5041310;28;20082;-77
2023/11/06 07:27:43;;;;;;;0.85;0.63;;;;;;;12.70;100.00;100037.91;5030387;28;20397;-75
2023/11/06 07:30:11;;;;;;;2.65;1.52;;;;;;;13.11;100.00;100107.56;5033669;28;20037;-78
2023/11/06 07:32:37;;;;;;;0.82;0.73;;;;;;;12.73;100.00;100027.34;5029657;28;20108;-79
2023/11/06 07:42:41;;;;;;;1.02;0.82;;;;;;;13.44;100.00;100129.03;5023187;28;20144;-76
2023/11/06 07:45:08;;;;;;;1.95;1.80;;;;;;;12.97;100.00;100023.47;5037571;28;20029;-76
2023/11/06 07:47:36;;;;;;;1.73;1.60;;;;;;;13.54;100.00;100127.09;5043803;28;20305;-76
2023/11/06 07:50:06;;;;;;;0.80;0.75;;;;;;;13.64;100.00;100112.84;5011069;28;20037;-77
2023/11/06 07:52:32;;;;;;;13.65;1.45;;;;;;;13.73;100.00;100103.00;5027240;28;20118;-75
2023/11/06 07:54:58;;;;;;;1.25;1.15;;;;;;;13.74;100.00;100098.59;5009698;28;20457;-77
2023/11/06 07:57:24;;;;;;;0.57;0.57;;;;;;;13.83;100.00;100098.44;5035764;28;20095;-79
2023/11/06 07:59:52;;;;;;;1.25;0.63;;;;;;;13.94;100.00;100107.03;5029835;28;20025;-76
2023/11/06 08:02:18;;;;;;;0.63;0.60;;;;;;;13.59;100.00;100015.38;5046513;28;20053;-77
2023/11/06 08:04:43;;;;;;;0.55;0.55;;;;;;;13.51;100.00;100004.13;5027808;28;20044;-76
2023/11/06 08:07:28;;;;;;;1.73;1.25;;;;;;;14.18;100.00;100098.66;5031790;28;20496;-76
2023/11/06 08:13:31;;;;;;;0.98;0.95;;;;;;;14.25;100.00;100103.78;5030458;28;20067;-77
2023/11/06 08:19:18;;;;;;;1.10;1.02;;;;;;;13.78;100.00;99980.75;5028791;28;20165;-77
2023/11/06 08:21:43;;;;;;;2.55;1.95;;;;;;;14.51;100.00;100100.59;5031048;28;20037;-77
2023/11/06 08:24:08;;;;;;;3.13;2.25;;;;;;;14.11;100.00;100009.06;5030158;28;20028;-77
2023/11/06 08:26:34;;;;;;;1.13;1.02;;;;;;;14.03;100.00;100012.78;5028323;28;20476;-76
2023/11/06 08:29:20;;;;;;;0.57;0.43;;;;;;;14.72;100.00;100099.31;5013322;28;20042;-77
2023/11/06 08:31:46;;;;;;;1.45;0.90;;;;;;;14.83;100.00;100116.69;5040534;28;20050;-79
2023/11/06 08:34:12;;;;;;;3.38;2.28;;;;;;;14.76;100.00;100085.13;5027785;28;20056;-78
2023/11/06 08:36:50;;;;;;;7.10;3.15;;;;;;;14.31;100.00;100005.16;5038786;28;20037;-77
2023/11/06 08:39:17;;;;;;;1.58;1.48;;;;;;;14.89;100.00;100091.03;5014914;28;20102;-75
2023/11/06 08:41:44;;;;;;;0.75;0.60;;;;;;;15.03;100.00;100119.78;5027814;28;20100;-78
2023/11/06 08:44:09;;;;;;;0.88;0.77;;;;;;;14.82;100.00;100075.31;5024457;28;20046;-77
2023/11/06 08:46:35;;;;;;;0.77;0.77;;;;;;;14.45;100.00;100029.47;5027126;28;20048;-75
2023/11/06 08:49:01;;;;;;;0.80;0.75;;;;;;;14.44;100.00;100035.63;5030931;28;20452;-76
2023/11/06 08:51:55;;;;;;;0.68;0.68;;;;;;;15.09;100.00;100121.38;5045361;28;20033;-77
2023/11/06 08:54:33;;;;;;;1.10;1.00;;;;;;;14.77;100.00;100043.72;5034485;28;20041;-76
2023/11/06 08:56:59;;;;;;;1.52;1.30;;;;;;;14.52;100.00;100015.22;5038206;28;20068;-77
2023/11/06 08:59:25;;;;;;;1.75;1.48;;;;;;;15.07;100.00;100089.69;5031803;28;20053;-76
2023/11/06 09:01:52;;;;;;;2.75;1.13;;;;;;;15.10;100.00;100078.19;5032449;28;20708;-78
2023/11/06 09:08:34;;;;;;;1.20;0.80;;;;;;;15.49;100.00;100104.56;5034641;28;20103;-78
2023/11/06 09:14:34;;;;;;;2.67;1.30;;;;;;;15.52;100.00;100112.41;5039372;28;20052;-78
2023/11/06 09:17:03;;;;;;;3.50;2.95;;;;;;;14.10;100.00;99848.19;5028944;28;20045;-77
2023/11/06 09:19:29;;;;;;;0.70;0.50;;;;;;;15.94;100.00;100115.75;5034766;28;20440;-77
2023/11/06 09:21:54;;;;;;;2.97;1.95;;;;;;;15.77;100.00;100110.91;5037419;28;20045;-75
2023/11/06 09:24:19;;;;;;;1.95;1.33;;;;;;;15.72;100.00;100111.94;5040698;28;20056;-78
2023/11/06 09:26:46;;;;;;;1.65;1.55;;;;;;;15.54;100.00;100079.72;5032026;28;20034;-76
2023/11/06 09:29:12;;;;;;;3.65;1.02;;;;;;;15.06;100.00;100023.69;5030263;28;20048;-76
2023/11/06 09:31:37;;;;;;;3.08;1.33;;;;;;;15.61;100.00;100098.94;5045187;28;20043;-77
2023/11/06 09:34:19;;;;;;;1.05;0.85;;;;;;;15.93;100.00;100116.66;5029480;28;20041;-76
2023/11/06 09:36:45;;;;;;;1.17;0.55;;;;;;;15.28;100.00;100000.22;5036718;28;20242;-75
2023/11/06 09:39:11;;;;;;;0.88;0.88;;;;;;;15.99;100.00;100105.94;5043074;28;20424;-76
2023/11/06 09:41:37;;;;;;;0.93;0.85;;;;;;;16.21;100.00;100105.31;5011606;28;20365;-77
2023/11/06 09:44:05;;;;;;;2.35;2.22;;;;;;;16.30;100.00;100106.84;5034858;28;20067;-76
2023/11/06 09:46:31;;;;;;;0.30;0.30;;;;;;;15.69;100.00;99995.63;5010809;28;20030;-74
2023/11/06 09:49:14;;;;;;;1.17;0.93;;;;;;;16.10;100.00;100073.84;5038586;28;20065;-77
2023/11/06 09:51:43;;;;;;;0.82;0.82;;;;;;;15.79;100.00;99989.19;5009177;28;20040;-77
2023/11/06 09:54:11;;;;;;;0.30;0.30;;;;;;;15.79;100.00;99968.00;5010495;28;20079;-75
2023/11/06 09:56:42;;;;;;;0.47;0.47;;;;;;;16.70;100.00;100110.97;5011942;28;20036;-77
2023/11/06 10:07:52;;;;;;;2.80;1.95;;;;;;;16.90;100.00;100108.59;5036038;28;20048;-88
2023/11/06 10:10:20;;;;;;;0.95;0.57;;;;;;;17.05;100.00;100104.63;5016144;28;20044;-76
2023/11/06 10:13:05;;;;;;;1.70;1.58;;;;;;;16.66;100.00;100010.38;5032665;28;20337;-76
2023/11/06 10:19:12;;;;;;;0.65;0.55;;;;;;;17.29;100.00;100087.91;5033477;28;20072;-78
2023/11/06 10:21:38;;;;;;;0.35;0.30;;;;;;;17.52;100.00;100112.81;4998251;28;20444;-77
2023/11/06 10:24:33;;;;;;;0.30;0.30;;;;;;;17.69;100.00;100106.94;5018488;28;20029;-78
2023/11/06 10:27:37;;;;;;;1.67;1.58;;;;;;;17.84;100.00;100110.88;5019243;28;20044;-79
2023/11/06 10:34:03;;;;;;;0.35;0.35;;;;;;;18.04;100.00;100107.53;5031538;28;20068;-78
2023/11/06 10:44:08;;;;;;;2.15;1.52;;;;;;;18.43;100.00;100128.25;5032487;28;20043;-80
2023/11/06 10:46:37;;;;;;;1.20;0.73;;;;;;;18.30;100.00;100095.94;5030271;28;20041;-79
2023/11/06 10:49:22;;;;;;;8.55;2.15;;;;;;;18.51;100.00;100134.13;5030736;28;20128;-81
2023/11/06 10:51:51;;;;;;;0.40;0.25;;;;;;;18.62;100.00;100121.31;5010920;28;20034;-79
2023/11/06 10:54:19;;;;;;;0.55;0.38;;;;;;;18.66;100.00;100132.69;5026520;28;20038;-79
2023/11/06 10:56:46;;;;;;;0.50;0.40;;;;;;;18.63;100.00;100119.53;5014552;28;20025;-81
2023/11/06 10:59:14;;;;;;;1.50;0.98;;;;;;;18.42;100.00;100076.03;4996771;28;20392;-80
2023/11/06 11:01:40;;;;;;;0.40;0.40;;;;;;;17.99;100.00;100012.09;5031431;28;20041;-80
2023/11/06 11:04:10;;;;;;;0.77;0.50;;;;;;;18.51;100.00;100094.28;5029727;28;20041;-79
2023/11/06 11:06:40;;;;;;;1.75;0.95;;;;;;;18.69;100.00;100129.94;5033885;28;20061;-80
2023/11/06 11:09:10;;;;;;;2.85;2.60;;;;;;;18.77;100.00;100126.06;5029680;28;20033;-80
2023/11/06 11:11:38;;;;;;;0.75;0.75;;;;;;;18.65;100.00;100104.38;5030409;28;20021;-79
2023/11/06 11:14:06;;;;;;;1.40;1.30;;;;;;;17.72;100.00;99959.09;5028656;28;20037;-80
2023/11/06 11:16:42;;;;;;;1.00;0.63;;;;;;;18.89;100.00;100140.69;5028781;28;20358;-80
2023/11/06 11:19:40;;;;;;;0.45;0.45;;;;;;;19.06;100.00;100137.38;5004260;28;20412;-80
2023/11/06 11:22:07;;;;;;;0.75;0.75;;;;;;;18.38;100.00;100047.84;5027508;28;20124;-80
2023/11/06 11:24:45;;;;;;;0.80;0.70;;;;;;;18.58;100.00;100081.63;5030321;28;20033;-79
2023/11/06 11:27:44;;;;;;;1.23;1.20;;;;;;;19.12;100.00;100144.25;5030308;28;20044;-79
2023/11/06 11:30:10;;;;;;;1.10;0.73;;;;;;;18.71;100.00;100128.09;5027959;28;20048;-79
2023/11/06 11:32:37;;;;;;;0.43;0.43;;;;;;;18.45;100.00;100091.84;5026229;28;20029;-80
2023/11/06 11:38:58;;;;;;;0.20;0.20;;;;;;;18.91;100.00;100149.47;5030633;28;20136;-80
2023/11/06 11:41:25;;;;;;;1.08;0.85;;;;;;;19.02;100.00;100141.09;5028361;28;20034;-81
2023/11/06 11:44:04;;;;;;;0.43;0.28;;;;;;;18.74;100.00;100134.13;5031671;28;20045;-79
2023/11/06 11:46:39;;;;;;;0.50;0.40;;;;;;;19.06;100.00;100158.66;5029288;28;20099;-80
2023/11/06 11:49:05;;;;;;;0.45;0.40;;;;;;;18.89;100.00;100139.81;5013450;28;20037;-79
2023/11/06 11:51:50;;;;;;;0.47;0.47;;;;;;;18.54;100.00;100075.56;5026709;28;20171;-80
2023/11/06 11:54:30;;;;;;;0.20;0.20;;;;;;;18.99;100.00;100154.50;5039435;28;20036;-80
2023/11/06 11:56:57;;;;;;;0.50;0.50;;;;;;;18.93;100.00;100142.31;5025739;28;20087;-80
2023/11/06 11:59:26;;;;;;;0.10;0.10;;;;;;;18.85;100.00;100119.63;5030402;28;20037;-80
2023/11/06 12:01:53;;;;;;;0.52;0.52;;;;;;;19.05;100.00;100162.22;4991350;28;20060;-80
2023/11/06 12:04:20;;;;;;;1.77;1.65;;;;;;;18.63;100.00;100122.19;5026414;28;20037;-81
2023/11/06 12:07:00;;;;;;;0.43;0.22;;;;;;;18.95;100.00;100156.41;5019254;28;20091;-78
2023/11/06 12:09:26;;;;;;;0.30;0.30;;;;;;;18.45;100.00;100084.75;5025706;28;20056;-81
2023/11/06 12:11:52;;;;;;;1.85;1.05;;;;;;;18.19;100.00;100024.66;5023349;28;20032;-79
2023/11/06 12:14:18;;;;;;;0.50;0.50;;;;;;;18.39;100.00;100058.41;5029159;28;20037;-80
2023/11/06 12:16:50;;;;;;;0.20;0.20;;;;;;;19.02;100.00;100154.38;5033347;28;20076;-81
2023/11/06 12:19:18;;;;;;;1.65;1.55;;;;;;;18.84;100.00;100125.84;5038355;28;20037;-80
2023/11/06 12:22:17;;;;;;;0.73;0.73;;;;;;;19.38;100.00;100185.75;5033181;28;20033;-80
2023/11/06 12:25:00;;;;;;;1.05;0.80;;;;;;;18.72;100.00;100042.09;5036095;28;20117;-79
2023/11/06 12:27:35;;;;;;;0.43;0.32;;;;;;;18.84;100.00;100104.56;5035002;28;20036;-80
2023/11/06 12:33:23;;;;;;;0.30;0.30;;;;;;;19.16;100.00;100175.13;5031596;28;20117;-79
2023/11/06 12:45:43;;;;;;;0.20;0.20;;;;;;;19.02;100.00;100166.81;5031896;28;21001;-79
2023/11/06 12:48:26;;;;;;;0.90;0.57;;;;;;;19.24;100.00;100199.59;5014894;28;20031;-81
2023/11/06 12:51:07;;;;;;;0.22;0.22;;;;;;;18.72;100.00;100130.66;5040198;28;20023;-79
2023/11/06 12:53:34;;;;;;;0.32;0.32;;;;;;;18.69;100.00;100136.09;5030516;28;20037;-79
2023/11/06 12:56:00;;;;;;;0.20;0.20;;;;;;;18.62;100.00;100123.97;5030019;28;20544;-79
2023/11/06 12:58:27;;;;;;;0.45;0.40;;;;;;;18.32;100.00;100076.38;5027806;28;20045;-78
2023/11/06 13:01:00;;;;;;;1.08;1.00;;;;;;;19.03;100.00;100190.66;5043445;28;20036;-80
2023/11/06 13:03:27;;;;;;;;;;;;;;;19.02;100.00;100212.88;5038165;28;20046;-80
2023/11/06 13:06:13;;;;;;;2.83;1.85;;;;;;;18.97;100.00;100213.06;5045187;28;19913;-78
2023/11/06 13:08:40;;;;;;;0.30;0.30;;;;;;;18.87;100.00;100213.44;5024273;28;20373;-79
2023/11/06 13:11:08;;;;;;;2.65;0.75;;;;;;;18.56;100.00;100159.59;5029925;28;20044;-80
2023/11/06 13:13:35;;;;;;;0.20;0.20;;;;;;;18.85;100.00;100205.56;5024128;28;20423;-80
2023/11/06 13:16:02;;;;;;;0.43;0.43;;;;;;;18.67;100.00;100179.63;5034257;28;20057;-78
2023/11/06 13:18:29;;;;;;;0.20;0.20;;;;;;;18.61;100.00;100167.41;5033515;28;20041;-78
2023/11/06 13:21:22;;;;;;;0.30;0.30;;;;;;;18.75;100.00;100202.34;5033374;28;20044;-80
2023/11/06 13:23:48;;;;;;;0.43;0.43;;;;;;;18.66;100.00;100197.38;5043694;28;20497;-78
2023/11/06 13:26:15;;;;;;;0.90;0.73;;;;;;;18.34;100.00;100164.00;5037537;28;20085;-78
2023/11/06 13:28:42;;;;;;;1.30;1.23;;;;;;;18.86;100.00;100256.94;5032571;28;20079;-79
2023/11/06 13:31:11;;;;;;;0.10;0.10;;;;;;;18.84;100.00;100251.66;5043277;28;20091;-78
2023/11/06 13:33:39;;;;;;;0.70;0.47;;;;;;;18.25;100.00;100137.75;5042977;28;20362;-79
2023/11/06 13:36:05;;;;;;;1.55;1.15;;;;;;;18.20;100.00;100132.59;5033061;28;20039;-80